createdAt,value
2018-09-19T00:00:50.290Z,15.81
2018-09-19T00:02:50.299Z,15.78
2018-09-19T00:04:50.501Z,15.76
2018-09-19T00:06:49.757Z,15.75
2018-09-19T00:08:49.865Z,15.73
2018-09-19T00:10:49.882Z,15.71
2018-09-19T00:12:49.933Z,15.70
2018-09-19T00:14:50.034Z,15.69
2018-09-19T00:16:50.158Z,15.67
2018-09-19T00:18:50.223Z,15.67
2018-09-19T00:20:50.293Z,15.67
2018-09-19T00:22:50.280Z,15.66
2018-09-19T00:24:50.315Z,15.64
2018-09-19T00:26:50.518Z,15.64
2018-09-19T00:28:50.708Z,15.65
2018-09-19T00:30:49.739Z,15.68
2018-09-19T00:32:49.820Z,15.71
2018-09-19T00:34:50.221Z,15.74
2018-09-19T00:36:50.402Z,15.76
2018-09-19T00:38:50.362Z,15.85
2018-09-19T00:40:50.458Z,15.94
2018-09-19T00:42:50.440Z,15.97
2018-09-19T00:44:50.462Z,15.98
2018-09-19T00:46:50.706Z,15.99
2018-09-19T00:48:50.692Z,16.02
2018-09-19T00:50:49.732Z,16.02
2018-09-19T00:52:49.809Z,16.01
2018-09-19T00:54:49.824Z,15.96
2018-09-19T00:56:50.129Z,15.94
2018-09-19T00:58:50.093Z,15.89
2018-09-19T01:00:50.105Z,15.89
2018-09-19T01:02:50.227Z,15.89
2018-09-19T01:04:50.593Z,15.91
2018-09-19T01:06:49.828Z,15.91
2018-09-19T01:08:49.875Z,15.91
2018-09-19T01:10:49.841Z,15.93
2018-09-19T01:12:49.953Z,15.94
2018-09-19T01:14:50.108Z,15.95
2018-09-19T01:16:50.224Z,15.94
2018-09-19T01:18:50.287Z,15.94
2018-09-19T01:20:50.298Z,15.92
2018-09-19T01:22:50.363Z,15.92
2018-09-19T01:24:50.395Z,15.91
2018-09-19T01:26:50.686Z,15.91
2018-09-19T01:28:49.718Z,15.90
2018-09-19T01:30:49.841Z,15.91
2018-09-19T01:32:49.871Z,15.92
2018-09-19T01:34:50.648Z,15.92
2018-09-19T01:36:49.887Z,15.92
2018-09-19T01:38:50.008Z,15.92
2018-09-19T01:40:50.203Z,15.90
2018-09-19T01:42:50.270Z,15.89
2018-09-19T01:44:50.313Z,15.90
2018-09-19T01:46:50.464Z,15.94
2018-09-19T01:48:50.408Z,15.96
2018-09-19T01:50:50.504Z,15.97
2018-09-19T01:52:50.588Z,16.02
2018-09-19T01:54:50.612Z,16.05
2018-09-19T01:56:49.731Z,16.09
2018-09-19T01:58:49.875Z,16.10
2018-09-19T02:00:49.947Z,16.10
2018-09-19T02:02:49.957Z,16.12
2018-09-19T02:04:50.186Z,16.12
2018-09-19T02:06:50.342Z,16.13
2018-09-19T02:08:50.460Z,16.13
2018-09-19T02:10:50.514Z,16.14
2018-09-19T02:12:50.558Z,16.14
2018-09-19T02:14:50.574Z,16.12
2018-09-19T02:16:49.791Z,16.11
2018-09-19T02:18:49.740Z,16.11
2018-09-19T02:20:49.881Z,16.13
2018-09-19T02:22:49.969Z,16.13
2018-09-19T02:24:50.029Z,16.17
2018-09-19T02:26:50.286Z,16.20
2018-09-19T02:28:50.273Z,16.21
2018-09-19T02:30:50.265Z,16.23
2018-09-19T02:32:50.310Z,16.2
2018-09-19T02:34:49.789Z,16.29
2018-09-19T02:36:49.991Z,16.28
2018-09-19T02:38:50.027Z,16.28
2018-09-19T02:40:50.000Z,16.28
2018-09-19T02:42:50.020Z,16.27
2018-09-19T02:44:50.023Z,16.28
2018-09-19T02:46:50.176Z,16.28
2018-09-19T02:48:50.246Z,16.26
2018-09-19T02:50:50.217Z,16.25
2018-09-19T02:52:50.240Z,16.26
2018-09-19T02:54:50.261Z,16.27
2018-09-19T02:56:50.357Z,16.2
2018-09-19T02:58:50.416Z,16.2
2018-09-19T03:00:50.506Z,16.25
2018-09-19T03:02:50.474Z,16.2
2018-09-19T03:04:49.856Z,16.22
2018-09-19T03:06:50.241Z,16.19
2018-09-19T03:08:50.362Z,16.10
2018-09-19T03:10:50.491Z,16.04
2018-09-19T03:12:50.598Z,16.00
2018-09-19T03:14:50.595Z,15.97
2018-09-19T03:18:49.763Z,15.93
2018-09-19T03:20:49.932Z,15.90
2018-09-19T03:22:50.034Z,15.89
2018-09-19T03:24:50.117Z,15.88
2018-09-19T03:26:50.290Z,15.89
2018-09-19T03:28:50.261Z,15.89
2018-09-19T03:30:50.286Z,15.94
2018-09-19T03:32:50.332Z,15.97
2018-09-19T03:34:50.496Z,16.02
2018-09-19T03:36:50.677Z,16.02
2018-09-19T03:38:49.766Z,16.07
2018-09-19T03:40:50.020Z,16.09
2018-09-19T03:42:50.256Z,16.15
2018-09-19T03:44:50.612Z,16.2
2018-09-19T03:46:50.338Z,16.2
2018-09-19T03:48:50.755Z,16.2
2018-09-19T03:50:50.014Z,16.2
2018-09-19T03:52:50.271Z,16.2
2018-09-19T03:54:50.635Z,16.2
2018-09-19T03:56:50.244Z,16.2
2018-09-19T03:58:50.596Z,16.2
2018-09-19T04:00:50.123Z,16.2
2018-09-19T04:02:50.368Z,16.3
2018-09-19T04:04:50.030Z,16.3
2018-09-19T04:06:50.482Z,16.3
2018-09-19T04:08:50.731Z,16.3
2018-09-19T04:10:49.815Z,16.4
2018-09-19T04:12:50.241Z,16.4
2018-09-19T04:14:50.583Z,16.4
2018-09-19T04:16:50.041Z,16.5
2018-09-19T04:18:50.280Z,16.6
2018-09-19T04:20:50.706Z,16.6
2018-09-19T04:22:49.928Z,16.7
2018-09-19T04:24:50.253Z,16.7
2018-09-19T04:26:50.329Z,16.8
2018-09-19T04:28:50.750Z,16.9
2018-09-19T04:30:50.157Z,16.9
2018-09-19T04:32:50.540Z,17.0
2018-09-19T04:34:50.487Z,17.0
2018-09-19T04:36:50.068Z,17.0
2018-09-19T04:38:50.354Z,17.1
2018-09-19T04:40:50.413Z,17.1
2018-09-19T04:42:49.710Z,17.2
2018-09-19T04:44:49.934Z,17.2
2018-09-19T04:46:50.393Z,17.2
2018-09-19T04:48:50.624Z,17.3
2018-09-19T04:50:49.908Z,17.3
2018-09-19T04:52:50.353Z,17.3
2018-09-19T04:54:50.633Z,17.4
2018-09-19T04:56:50.342Z,17.4
2018-09-19T04:58:50.508Z,17.4
2018-09-19T05:00:49.801Z,17.4
2018-09-19T05:02:49.996Z,17.4
2018-09-19T05:04:50.696Z,17.5
2018-09-19T05:06:50.329Z,17.5
2018-09-19T05:08:50.694Z,17.5
2018-09-19T05:10:49.957Z,17.5
2018-09-19T05:12:50.486Z,17.6
2018-09-19T05:14:50.707Z,17.6
2018-09-19T05:16:50.214Z,17.6
2018-09-19T05:18:50.454Z,17.6
2018-09-19T05:20:49.725Z,17.7
2018-09-19T05:22:50.179Z,17.7
2018-09-19T05:24:50.357Z,17.7
2018-09-19T05:26:49.784Z,17.8
2018-09-19T05:28:50.031Z,17.8
2018-09-19T05:30:50.304Z,17.8
2018-09-19T05:32:50.502Z,17.8
2018-09-19T05:34:50.145Z,17.8
2018-09-19T05:36:50.107Z,17.8
2018-09-19T05:38:50.394Z,17.8
2018-09-19T05:40:50.705Z,17.8
2018-09-19T05:42:49.861Z,17.8
2018-09-19T05:44:49.983Z,17.8
2018-09-19T05:46:50.447Z,17.8
2018-09-19T05:48:49.693Z,17.8
2018-09-19T05:50:50.045Z,17.8
2018-09-19T05:52:50.297Z,17.8
2018-09-19T05:54:50.410Z,17.8
2018-09-19T05:56:49.798Z,17.8
2018-09-19T05:58:50.220Z,17.8
2018-09-19T06:00:50.567Z,17.8
2018-09-19T06:02:50.711Z,17.8
2018-09-19T06:04:50.749Z,17.8
2018-09-19T06:06:50.280Z,17.8
2018-09-19T06:08:50.614Z,17.8
2018-09-19T06:10:50.046Z,17.8
2018-09-19T06:12:50.604Z,17.8
2018-09-19T06:14:49.997Z,17.8
2018-09-19T06:16:50.683Z,17.8
2018-09-19T06:18:49.895Z,17.8
2018-09-19T06:20:50.155Z,17.8
2018-09-19T06:22:50.405Z,17.9
2018-09-19T06:24:49.985Z,17.9
2018-09-19T06:26:50.633Z,17.9
2018-09-19T06:28:49.934Z,18.0
2018-09-19T06:30:50.164Z,18.2
2018-09-19T06:32:50.733Z,18.2
2018-09-19T06:34:50.630Z,18.2
2018-09-19T06:36:50.214Z,18.2
2018-09-19T06:38:50.548Z,18.3
2018-09-19T06:40:50.624Z,18.4
2018-09-19T06:42:50.024Z,18.5
2018-09-19T06:44:50.247Z,18.5
2018-09-19T06:46:50.194Z,18.6
2018-09-19T06:48:50.576Z,18.6
2018-09-19T06:50:49.792Z,18.8
2018-09-19T06:52:50.061Z,19.0
2018-09-19T06:54:50.372Z,19.0
2018-09-19T06:56:49.899Z,19.1
2018-09-19T06:58:50.125Z,19.2
2018-09-19T07:00:50.365Z,19.3
2018-09-19T07:02:50.704Z,19.3
2018-09-19T07:04:50.257Z,19.3
2018-09-19T07:06:49.820Z,19.4
2018-09-19T07:08:49.932Z,19.4
2018-09-19T07:10:50.222Z,19.5
2018-09-19T07:12:50.523Z,19.5
2018-09-19T07:14:49.884Z,19.5
2018-09-19T07:16:50.490Z,19.6
2018-09-19T07:18:49.984Z,19.6
2018-09-19T07:20:50.118Z,19.7
2018-09-19T07:22:50.093Z,19.8
2018-09-19T07:24:50.133Z,19.8
2018-09-19T07:26:50.289Z,19.9
2018-09-19T07:28:50.280Z,20.0
2018-09-19T07:30:50.518Z,20.0
2018-09-19T07:32:50.573Z,20.3
2018-09-19T07:34:50.059Z,20.4
2018-09-19T07:36:50.280Z,20.5
2018-09-19T07:38:50.398Z,20.6
2018-09-19T07:40:50.431Z,20.6
2018-09-19T07:42:50.445Z,20.8
2018-09-19T07:44:50.538Z,20.8
2018-09-19T07:46:50.683Z,21.0
2018-09-19T07:48:50.668Z,21.1
2018-09-19T07:50:49.792Z,21.1
2018-09-19T07:52:49.910Z,21.2
2018-09-19T07:54:50.139Z,21.2
2018-09-19T07:56:50.458Z,21.3
2018-09-19T07:58:50.564Z,21.4
2018-09-19T08:00:51.726Z,21.4
2018-09-19T08:02:49.980Z,21.5
2018-09-19T08:04:50.281Z,21.7
2018-09-19T08:06:50.418Z,21.8
2018-09-19T08:08:50.510Z,21.8
2018-09-19T08:10:50.542Z,21.8
2018-09-19T08:12:50.578Z,22.0
2018-09-19T08:14:50.591Z,22.2
2018-09-19T08:16:51.053Z,22.2
2018-09-19T08:18:50.421Z,22.2
2018-09-19T08:20:50.487Z,22.3
2018-09-19T08:22:50.545Z,22.4
2018-09-19T08:24:50.578Z,22.4
2018-09-19T08:26:50.671Z,22.5
2018-09-19T08:28:49.746Z,22.5
2018-09-19T08:30:49.793Z,22.5
2018-09-19T08:32:49.911Z,22.5
2018-09-19T08:34:50.267Z,22.6
2018-09-19T08:36:50.384Z,22.6
2018-09-19T08:38:50.451Z,22.6
2018-09-19T08:40:50.458Z,22.6
2018-09-19T08:42:50.634Z,22.6
2018-09-19T08:44:50.666Z,22.6
2018-09-19T08:46:49.872Z,22.7
2018-09-19T08:48:49.952Z,22.7
2018-09-19T08:50:50.114Z,22.8
2018-09-19T08:52:50.180Z,22.8
2018-09-19T08:54:50.235Z,22.9
2018-09-19T08:56:50.392Z,23.0
2018-09-19T08:58:50.398Z,23.0
2018-09-19T09:00:50.448Z,23.1
2018-09-19T09:02:50.525Z,23.1
2018-09-19T09:04:49.983Z,23.2
2018-09-19T09:06:50.172Z,23.2
2018-09-19T09:08:50.214Z,23.3
2018-09-19T09:10:50.336Z,23.4
2018-09-19T09:12:50.703Z,23.5
2018-09-19T09:14:49.975Z,23.5
2018-09-19T09:16:50.173Z,23.5
2018-09-19T09:18:50.176Z,23.45
2018-09-19T09:20:50.222Z,23.26
2018-09-19T09:22:50.331Z,23.13
2018-09-19T09:24:50.559Z,23.08
2018-09-19T09:26:50.257Z,23.14
2018-09-19T09:28:50.486Z,23.24
2018-09-19T09:30:50.676Z,23.39
2018-09-19T09:32:49.703Z,23.39
2018-09-19T09:34:50.293Z,23.38
2018-09-19T09:36:50.163Z,23.4
2018-09-19T09:38:50.431Z,23.4
2018-09-19T09:40:50.419Z,23.4
2018-09-19T09:42:50.506Z,23.29
2018-09-19T09:44:50.513Z,23.3
2018-09-19T09:46:49.775Z,23.2
2018-09-19T09:48:49.914Z,23.2
2018-09-19T09:50:49.922Z,23.2
2018-09-19T09:52:50.009Z,23.1
2018-09-19T09:54:50.123Z,23.1
2018-09-19T09:56:50.282Z,23.0
2018-09-19T09:58:50.318Z,22.9
2018-09-19T10:00:50.351Z,22.9
2018-09-19T10:02:50.510Z,22.8
2018-09-19T10:04:49.825Z,22.8
2018-09-19T10:06:50.014Z,22.7
2018-09-19T10:08:50.108Z,22.7
2018-09-19T10:10:50.071Z,22.7
2018-09-19T10:12:50.041Z,22.8
2018-09-19T10:14:50.176Z,22.8
2018-09-19T10:16:50.358Z,22.8
2018-09-19T10:18:50.297Z,22.9
2018-09-19T10:20:50.259Z,22.9
2018-09-19T10:22:50.244Z,22.9
2018-09-19T10:24:50.223Z,22.9
2018-09-19T10:26:50.391Z,22.9
2018-09-19T10:28:50.313Z,22.9
2018-09-19T10:30:50.277Z,22.9
2018-09-19T10:32:50.240Z,22.8
2018-09-19T10:34:50.532Z,22.8
2018-09-19T10:36:50.666Z,22.7
2018-09-19T10:38:49.721Z,22.6
2018-09-19T10:40:49.718Z,22.6
2018-09-19T10:42:49.839Z,22.6
2018-09-19T10:44:49.832Z,22.6
2018-09-19T10:46:50.053Z,22.6
2018-09-19T10:48:50.095Z,22.6
2018-09-19T10:50:50.069Z,22.6
2018-09-19T10:52:49.996Z,22.6
2018-09-19T10:54:50.076Z,22.6
2018-09-19T10:56:50.586Z,22.7
2018-09-19T10:58:50.709Z,22.7
2018-09-19T11:00:50.698Z,22.7
2018-09-19T11:02:49.784Z,22.8
2018-09-19T11:04:50.108Z,23.0
2018-09-19T11:06:50.381Z,23.0
2018-09-19T11:08:50.337Z,23.2
2018-09-19T11:10:50.316Z,23.2
2018-09-19T11:12:50.333Z,23.3
2018-09-19T11:14:50.282Z,23.4
2018-09-19T11:16:50.367Z,23.4
2018-09-19T11:18:50.334Z,23.5
2018-09-19T11:20:50.324Z,23.6
2018-09-19T11:22:50.372Z,23.7
2018-09-19T11:24:50.514Z,23.8
2018-09-19T11:26:50.675Z,24.0
2018-09-19T11:28:49.711Z,24.0
2018-09-19T11:30:50.668Z,24.2
2018-09-19T11:32:49.688Z,24.2
2018-09-19T11:34:50.092Z,24.4
2018-09-19T11:36:50.341Z,24.4
2018-09-19T11:38:50.293Z,24.6
2018-09-19T11:40:50.246Z,24.7
2018-09-19T11:42:50.273Z,24.8
2018-09-19T11:44:50.207Z,24.8
2018-09-19T11:46:50.293Z,25.0
2018-09-19T11:48:50.523Z,25.0
2018-09-19T11:50:50.440Z,25.0
2018-09-19T11:52:50.430Z,25.1
2018-09-19T11:54:50.364Z,25.1
2018-09-19T11:56:50.477Z,25.3
2018-09-19T11:58:50.507Z,25.3
2018-09-19T12:00:50.449Z,25.4
2018-09-19T12:02:50.629Z,25.5
2018-09-19T12:04:49.869Z,25.6
2018-09-19T12:06:50.075Z,25.6
2018-09-19T12:08:49.990Z,25.7
2018-09-19T12:10:49.925Z,25.8
2018-09-19T12:12:49.862Z,25.9
2018-09-19T12:14:49.862Z,26.0
2018-09-19T12:16:50.018Z,26.0
2018-09-19T12:18:50.015Z,26.0
2018-09-19T12:20:49.968Z,26.1
2018-09-19T12:22:49.973Z,26.2
2018-09-19T12:24:49.950Z,26.2
2018-09-19T12:26:50.032Z,26.3
2018-09-19T12:28:50.098Z,26.4
2018-09-19T12:30:50.078Z,26.5
2018-09-19T12:32:50.039Z,26.6
2018-09-19T12:34:50.295Z,26.6
2018-09-19T12:36:50.444Z,26.6
2018-09-19T12:38:50.692Z,26.7
2018-09-19T12:40:50.672Z,26.7
2018-09-19T12:42:49.758Z,26.8
2018-09-19T12:44:49.719Z,26.8
2018-09-19T12:46:49.812Z,26.9
2018-09-19T12:48:49.896Z,26.9
2018-09-19T12:50:49.829Z,27.0
2018-09-19T12:52:49.827Z,27.0
2018-09-19T12:54:49.867Z,27.1
2018-09-19T12:56:50.083Z,27.1
2018-09-19T12:58:50.151Z,27.2
2018-09-19T13:00:50.141Z,27.3
2018-09-19T13:02:50.235Z,27.3
2018-09-19T13:04:50.477Z,27.4
2018-09-19T13:06:50.640Z,27.4
2018-09-19T13:08:50.658Z,27.5
2018-09-19T13:10:50.639Z,27.6
2018-09-19T13:12:50.602Z,27.6
2018-09-19T13:14:50.644Z,27.7
2018-09-19T13:16:49.910Z,27.7
2018-09-19T13:18:50.133Z,27.8
2018-09-19T13:20:50.169Z,27.8
2018-09-19T13:22:50.474Z,27.8
2018-09-19T13:24:50.419Z,27.9
2018-09-19T13:26:49.848Z,28.0
2018-09-19T13:28:49.886Z,28.0
2018-09-19T13:30:49.957Z,28.0
2018-09-19T13:32:49.945Z,28.0
2018-09-19T13:34:50.242Z,28.1
2018-09-19T13:36:50.376Z,28.2
2018-09-19T13:38:50.584Z,28.3
2018-09-19T13:40:50.477Z,28.3
2018-09-19T13:42:50.497Z,28.3
2018-09-19T13:44:50.478Z,28.3
2018-09-19T13:46:50.646Z,28.4
2018-09-19T13:48:50.643Z,28.3
2018-09-19T13:50:50.523Z,28.3
2018-09-19T13:52:50.466Z,28.4
2018-09-19T13:54:50.492Z,28.4
2018-09-19T13:56:50.588Z,28.4
2018-09-19T13:58:50.920Z,28.4
2018-09-19T14:00:50.023Z,28.4
2018-09-19T14:02:50.019Z,28.5
2018-09-19T14:04:50.229Z,28.5
2018-09-19T14:06:50.510Z,28.5
2018-09-19T14:08:50.594Z,28.5
2018-09-19T14:10:50.507Z,28.6
2018-09-19T14:12:50.500Z,28.6
2018-09-19T14:14:50.465Z,28.6
2018-09-19T14:16:50.675Z,28.6
2018-09-19T14:18:50.661Z,28.6
2018-09-19T14:20:49.788Z,28.6
2018-09-19T14:22:49.895Z,28.6
2018-09-19T14:24:49.871Z,28.6
2018-09-19T14:26:49.959Z,28.6
2018-09-19T14:28:49.984Z,28.6
2018-09-19T14:30:49.938Z,28.7
2018-09-19T14:32:49.924Z,28.7
2018-09-19T14:34:50.213Z,28.7
2018-09-19T14:36:50.372Z,28.7
2018-09-19T14:38:50.365Z,28.7
2018-09-19T14:40:50.353Z,28.7
2018-09-19T14:42:50.343Z,28.7
2018-09-19T14:44:50.287Z,28.8
2018-09-19T14:46:50.463Z,28.8
2018-09-19T14:48:50.882Z,28.8
2018-09-19T14:50:50.057Z,28.8
2018-09-19T14:52:50.133Z,28.8
2018-09-19T14:54:50.131Z,28.7
2018-09-19T14:56:50.352Z,28.7
2018-09-19T14:58:50.278Z,28.7
2018-09-19T15:00:50.298Z,28.7
2018-09-19T15:02:50.348Z,28.7
2018-09-19T15:04:49.749Z,28.7
2018-09-19T15:06:49.971Z,28.7
2018-09-19T15:08:50.026Z,28.6
2018-09-19T15:10:49.989Z,28.6
2018-09-19T15:12:49.974Z,28.6
2018-09-19T15:14:49.994Z,28.6
2018-09-19T15:16:50.158Z,28.6
2018-09-19T15:18:50.199Z,28.6
2018-09-19T15:20:50.140Z,28.6
2018-09-19T15:22:50.185Z,28.5
2018-09-19T15:24:50.099Z,28.5
2018-09-19T15:26:50.519Z,28.5
2018-09-19T15:28:50.521Z,28.5
2018-09-19T15:30:50.617Z,28.4
2018-09-19T15:32:49.755Z,28.4
2018-09-19T15:34:50.140Z,28.3
2018-09-19T15:36:50.387Z,28.3
2018-09-19T15:38:50.380Z,28.2
2018-09-19T15:40:50.322Z,28.2
2018-09-19T15:42:50.348Z,28.2
2018-09-19T15:44:50.344Z,28.1
2018-09-19T15:46:50.491Z,28.1
2018-09-19T15:48:50.506Z,28.0
2018-09-19T15:50:50.431Z,28.0
2018-09-19T15:52:50.566Z,28.0
2018-09-19T15:54:50.532Z,27.9
2018-09-19T15:56:49.716Z,27.8
2018-09-19T15:58:49.853Z,27.8
2018-09-19T16:00:49.885Z,27.8
2018-09-19T16:02:49.932Z,27.8
2018-09-19T16:04:50.255Z,27.7
2018-09-19T16:06:50.527Z,27.6
2018-09-19T16:08:50.445Z,27.5
2018-09-19T16:10:50.482Z,27.37
2018-09-19T16:12:50.447Z,27.36
2018-09-19T16:14:50.512Z,27.30
2018-09-19T16:16:49.720Z,27.30
2018-09-19T16:18:49.742Z,27.16
2018-09-19T16:20:50.087Z,27.09
2018-09-19T16:22:50.162Z,26.99
2018-09-19T16:24:50.215Z,26.91
2018-09-19T16:26:50.469Z,26.83
2018-09-19T16:28:50.402Z,26.77
2018-09-19T16:30:50.413Z,26.69
2018-09-19T16:32:50.401Z,26.58
2018-09-19T16:34:50.685Z,26.54
2018-09-19T16:36:49.927Z,26.42
2018-09-19T16:38:49.943Z,26.38
2018-09-19T16:40:49.918Z,26.32
2018-09-19T16:42:49.914Z,26.26
2018-09-19T16:44:49.951Z,26.19
2018-09-19T16:46:50.073Z,26.11
2018-09-19T16:48:50.142Z,26.07
2018-09-19T16:50:50.169Z,25.96
2018-09-19T16:52:50.265Z,25.91
2018-09-19T16:54:50.309Z,25.79
2018-09-19T16:56:50.549Z,25.75
2018-09-19T16:58:50.536Z,25.66
2018-09-19T17:00:50.549Z,25.56
2018-09-19T17:02:50.495Z,25.42
2018-09-19T17:04:49.863Z,25.32
2018-09-19T17:06:50.258Z,25.21
2018-09-19T17:08:50.215Z,25.14
2018-09-19T17:10:50.232Z,25.03
2018-09-19T17:12:50.352Z,24.95
2018-09-19T17:14:50.377Z,24.83
2018-09-19T17:16:50.575Z,24.65
2018-09-19T17:18:50.492Z,24.58
2018-09-19T17:20:50.576Z,24.43
2018-09-19T17:22:50.564Z,24.43
2018-09-19T17:24:50.579Z,24.25
2018-09-19T17:26:49.906Z,24.20
2018-09-19T17:28:49.905Z,24.14
2018-09-19T17:30:49.871Z,24.02
2018-09-19T17:32:49.976Z,23.90
2018-09-19T17:34:50.461Z,23.82
2018-09-19T17:36:50.594Z,23.74
2018-09-19T17:38:50.630Z,23.69
2018-09-19T17:40:49.737Z,23.67
2018-09-19T17:42:49.752Z,23.64
2018-09-19T17:44:49.792Z,23.64
2018-09-19T17:46:49.987Z,23.60
2018-09-19T17:48:50.007Z,23.57
2018-09-19T17:50:50.157Z,23.54
2018-09-19T17:52:50.216Z,23.48
2018-09-19T17:54:50.318Z,23.46
2018-09-19T17:56:50.428Z,23.43
2018-09-19T17:58:50.571Z,23.37
2018-09-19T18:00:50.876Z,23.32
2018-09-19T18:02:50.090Z,23.31
2018-09-19T18:04:50.418Z,23.25
2018-09-19T18:06:50.693Z,23.18
2018-09-19T18:08:50.679Z,23.15
2018-09-19T18:10:49.716Z,23.11
2018-09-19T18:12:49.696Z,23.07
2018-09-19T18:14:49.963Z,22.99
2018-09-19T18:16:50.195Z,22.90
2018-09-19T18:18:50.106Z,22.90
2018-09-19T18:20:50.200Z,22.73
2018-09-19T18:22:50.309Z,22.70
2018-09-19T18:24:50.320Z,22.65
2018-09-19T18:26:50.432Z,22.62
2018-09-19T18:28:50.447Z,22.56
2018-09-19T18:30:50.511Z,22.54
2018-09-19T18:32:50.541Z,22.54
2018-09-19T18:34:49.939Z,22.54
2018-09-19T18:36:50.140Z,22.51
2018-09-19T18:38:50.155Z,22.47
2018-09-19T18:40:50.188Z,22.42
2018-09-19T18:42:50.316Z,22.4
2018-09-19T18:44:50.350Z,22.38
2018-09-19T18:46:50.680Z,22.3
2018-09-19T18:48:49.779Z,22.3
2018-09-19T18:50:49.888Z,22.2
2018-09-19T18:52:49.859Z,22.2
2018-09-19T18:54:49.850Z,22.2
2018-09-19T18:56:50.053Z,22.1
2018-09-19T18:58:50.171Z,22.04
2018-09-19T19:00:50.189Z,22.04
2018-09-19T19:02:50.223Z,21.95
2018-09-19T19:04:50.462Z,21.94
2018-09-19T19:06:50.746Z,21.9
2018-09-19T19:08:49.749Z,21.8
2018-09-19T19:10:49.833Z,21.8
2018-09-19T19:12:49.875Z,21.80
2018-09-19T19:14:49.901Z,21.78
2018-09-19T19:16:50.002Z,21.7
2018-09-19T19:18:50.400Z,21.6
2018-09-19T19:20:49.855Z,21.56
2018-09-19T19:22:49.856Z,21.52
2018-09-19T19:24:49.873Z,21.43
2018-09-19T19:26:50.171Z,21.41
2018-09-19T19:28:50.279Z,21.35
2018-09-19T19:30:50.284Z,21.29
2018-09-19T19:32:50.348Z,21.23
2018-09-19T19:34:50.687Z,21.14
2018-09-19T19:36:49.915Z,21.07
2018-09-19T19:38:49.904Z,21.03
2018-09-19T19:40:49.996Z,20.88
2018-09-19T19:42:50.195Z,20.83
2018-09-19T19:44:50.508Z,20.72
2018-09-19T19:46:49.839Z,20.64
2018-09-19T19:48:49.827Z,20.51
2018-09-19T19:50:49.887Z,20.42
2018-09-19T19:52:50.016Z,20.31
2018-09-19T19:54:50.044Z,20.17
2018-09-19T19:56:50.178Z,20.12
2018-09-19T19:58:50.193Z,19.99
2018-09-19T20:00:50.175Z,19.92
2018-09-19T20:02:50.136Z,19.81
2018-09-19T20:04:50.424Z,19.73
2018-09-19T20:06:50.637Z,19.69
2018-09-19T20:08:50.577Z,19.55
2018-09-19T20:10:49.722Z,19.50
2018-09-19T20:12:49.865Z,19.39
2018-09-19T20:14:49.885Z,19.35
2018-09-19T20:16:49.982Z,19.24
2018-09-19T20:18:49.969Z,19.18
2018-09-19T20:20:49.943Z,19.12
2018-09-19T20:22:50.099Z,19.08
2018-09-19T20:24:50.072Z,19.03
2018-09-19T20:26:50.472Z,19.01
2018-09-19T20:28:50.414Z,18.95
2018-09-19T20:30:50.542Z,18.88
2018-09-19T20:32:50.625Z,18.80
2018-09-19T20:34:49.838Z,18.71
2018-09-19T20:36:50.037Z,18.69
2018-09-19T20:38:50.001Z,18.60
2018-09-19T20:40:50.078Z,18.60
2018-09-19T20:42:50.133Z,18.49
2018-09-19T20:44:50.129Z,18.45
2018-09-19T20:46:50.536Z,18.38
2018-09-19T20:48:49.711Z,18.33
2018-09-19T20:50:49.755Z,18.27
2018-09-19T20:52:49.803Z,18.25
2018-09-19T20:54:49.865Z,18.24
2018-09-19T20:56:50.032Z,18.20
2018-09-19T20:58:50.048Z,18.17
2018-09-19T21:00:50.137Z,18.16
2018-09-19T21:02:50.234Z,18.11
2018-09-19T21:04:50.794Z,18.09
2018-09-19T21:06:50.253Z,18.04
2018-09-19T21:08:50.270Z,17.98
2018-09-19T21:10:50.217Z,17.92
2018-09-19T21:12:50.238Z,17.90
2018-09-19T21:14:50.205Z,17.86
2018-09-19T21:16:50.559Z,17.84
2018-09-19T21:18:50.562Z,17.82
2018-09-19T21:20:50.737Z,17.84
2018-09-19T21:22:49.775Z,17.83
2018-09-19T21:24:49.824Z,17.78
2018-09-19T21:26:50.308Z,17.74
2018-09-19T21:28:50.291Z,17.73
2018-09-19T21:30:50.310Z,17.71
2018-09-19T21:32:50.366Z,17.65
2018-09-19T21:34:50.619Z,17.56
2018-09-19T21:36:49.742Z,17.56
2018-09-19T21:38:49.893Z,17.49
2018-09-19T21:40:50.267Z,17.47
2018-09-19T21:42:50.482Z,17.46
2018-09-19T21:44:50.604Z,17.44
2018-09-19T21:46:49.972Z,17.44
2018-09-19T21:48:49.982Z,17.42
2018-09-19T21:50:49.956Z,17.38
2018-09-19T21:52:50.001Z,17.37
2018-09-19T21:54:50.003Z,17.36
2018-09-19T21:56:50.149Z,17.35
2018-09-19T21:58:50.172Z,17.32
2018-09-19T22:00:50.146Z,17.25
2018-09-19T22:02:50.203Z,17.24
2018-09-19T22:04:50.519Z,17.20
2018-09-19T22:06:49.936Z,17.18
2018-09-19T22:08:49.910Z,17.16
2018-09-19T22:10:49.933Z,17.16
2018-09-19T22:12:49.955Z,17.14
2018-09-19T22:14:49.980Z,17.10
2018-09-19T22:16:50.215Z,17.06
2018-09-19T22:18:50.164Z,17.02
2018-09-19T22:20:50.155Z,16.99
2018-09-19T22:22:50.209Z,16.99
2018-09-19T22:24:50.222Z,16.96
2018-09-19T22:26:50.414Z,16.94
2018-09-19T22:28:50.443Z,16.94
2018-09-19T22:30:50.472Z,16.95
2018-09-19T22:32:50.421Z,16.95
2018-09-19T22:34:49.773Z,16.96
2018-09-19T22:36:49.995Z,16.97
2018-09-19T22:38:50.102Z,16.97
2018-09-19T22:40:50.119Z,16.94
2018-09-19T22:42:50.163Z,16.92
2018-09-19T22:44:50.207Z,16.87
2018-09-19T22:46:50.397Z,16.83
2018-09-19T22:48:50.373Z,16.84
2018-09-19T22:50:50.437Z,16.84
2018-09-19T22:52:50.459Z,16.80
2018-09-19T22:54:50.675Z,16.75
2018-09-19T22:56:49.834Z,16.72
2018-09-19T22:58:49.857Z,16.65
2018-09-19T23:00:49.828Z,16.62
2018-09-19T23:02:50.004Z,16.58
2018-09-19T23:04:50.376Z,16.55
2018-09-19T23:06:50.574Z,16.52
2018-09-19T23:08:50.516Z,16.52
2018-09-19T23:10:50.630Z,16.52
2018-09-19T23:12:50.581Z,16.52
2018-09-19T23:14:50.604Z,16.48
2018-09-19T23:16:49.869Z,16.45
2018-09-19T23:18:49.823Z,16.42
2018-09-19T23:20:49.879Z,16.40
2018-09-19T23:22:49.933Z,16.36
2018-09-19T23:24:50.654Z,16.35
2018-09-19T23:26:49.829Z,16.40
2018-09-19T23:28:49.949Z,16.40
2018-09-19T23:30:49.899Z,16.38
2018-09-19T23:32:49.940Z,16.34
2018-09-19T23:34:50.351Z,16.32
2018-09-19T23:36:50.586Z,16.31
2018-09-19T23:38:49.757Z,16.29
2018-09-19T23:40:49.840Z,16.24
2018-09-19T23:42:49.809Z,16.19
2018-09-19T23:44:49.851Z,16.19
2018-09-19T23:46:50.158Z,16.15
2018-09-19T23:48:50.120Z,16.14
2018-09-19T23:50:50.149Z,16.10
2018-09-19T23:52:50.214Z,16.08
2018-09-19T23:54:50.140Z,16.05
2018-09-19T23:56:50.334Z,16.03
2018-09-19T23:58:50.228Z,16.02
